Flight Track Log - Related Links

Times and Time Zones

All times are in EDT time to prevent confusion due to time zone crossing. See the N6762E flight status page for this flight to view local times or setup timezone preferences in your user account.

Time Position Orientation Groundspeed Altitude Reporting Facility
EDT Latitude Longitude Course Direction KTS MPH feet Rate Location/Type
Wed 10:33:41 PM 39.7467 -85.9917 111° Southeast 90 104 3,500  Level Indianapolis Center
Wed 10:34:42 PM 39.7378 -85.9617 111° Southeast 90 104 3,500 49 Level Indianapolis Center
Wed 10:35:43 PM 39.7297 -85.9300 108° East 90 104 3,600  Climbing Indianapolis Center
Wed 10:36:44 PM 39.7211 -85.8981 109° East 92 106 3,500 -49 Descending Indianapolis Center
Wed 10:37:45 PM 39.7108 -85.8700 115° Southeast 89 102 3,500  Level Indianapolis Center
Wed 10:38:46 PM 39.7019 -85.8386 110° East 90 104 3,500  Level Indianapolis Center
Wed 10:39:47 PM 39.6919 -85.8092 114° Southeast 90 104 3,500  Level Indianapolis Center
Wed 10:40:49 PM 39.6814 -85.7800 115° Southeast 89 102 3,500  Level Indianapolis Center
Wed 10:41:50 PM 39.6722 -85.7489 111° Southeast 90 104 3,500 49 Level Indianapolis Center
Wed 10:42:51 PM 39.6636 -85.7178 110° East 91 105 3,600 49 Climbing Indianapolis Center
Wed 10:43:52 PM 39.6533 -85.6903 116° Southeast 87 100 3,600  Level Indianapolis Center
Wed 10:44:53 PM 39.6461 -85.6594 107° East 87 100 3,600  Level Indianapolis Center
Wed 10:45:55 PM 39.6381 -85.6283 109° East 89 102 3,600 -49 Level Indianapolis Center
Wed 10:46:56 PM 39.6264 -85.5986 117° Southeast 90 104 3,500 -49 Descending Indianapolis Center
Wed 10:47:57 PM 39.6144 -85.5633 114° Southeast 91 105 3,500 -49 Level Indianapolis Center
Wed 10:48:58 PM 39.6056 -85.5331 111° Southeast 90 104 3,400  Descending Indianapolis Center
Wed 10:50:00 PM 39.5958 -85.5044 114° Southeast 88 101 3,500 49 Climbing Indianapolis Center
Wed 10:51:01 PM 39.5850 -85.4761 116° Southeast 86 99 3,500  Level Indianapolis Center
Wed 10:52:02 PM 39.5761 -85.4481 112° Southeast 85 98 3,500  Level Indianapolis Center
Wed 10:53:03 PM 39.5683 -85.4178 108° East 86 99 3,500  Level Indianapolis Center
Wed 10:54:05 PM 39.5628 -85.3889 104° East 84 97 3,500  Level Indianapolis Center
Wed 10:55:06 PM 39.5514 -85.3592 116° Southeast 87 100 3,500  Level Indianapolis Center
Wed 10:56:07 PM 39.5425 -85.3319 113° Southeast 85 98 3,500  Level Indianapolis Center
Wed 10:57:08 PM 39.5339 -85.3014 110° East 87 100 3,500  Level Indianapolis Center
Wed 10:58:10 PM 39.5297 -85.2708 100° East 87 100 3,500  Level Indianapolis Center
Wed 10:59:11 PM 39.5267 -85.2397 97° East 86 99 3,500 49 Level Indianapolis Center
Wed 11:00:12 PM 39.5217 -85.2106 103° East 84 97 3,600 49 Climbing Indianapolis Center
Wed 11:01:14 PM 39.5181 -85.1728 97° East 87 100 3,600  Level Indianapolis Center
Wed 11:02:15 PM 39.5128 -85.1419 103° East 88 101 3,600  Level Indianapolis Center
Wed 11:03:16 PM 39.5053 -85.1133 109° East 85 98 3,600  Level Indianapolis Center
Wed 11:04:17 PM 39.4972 -85.0836 109° East 87 100 3,600  Level Indianapolis Center
Wed 11:05:19 PM 39.4883 -85.0553 112° Southeast 85 98 3,600  Level Indianapolis Center
Wed 11:06:20 PM 39.4800 -85.0275 111° Southeast 84 97 3,600  Level Indianapolis Center
Wed 11:07:21 PM 39.4733 -84.9986 107° East 83 96 3,600  Level Indianapolis Center
Wed 11:08:23 PM 39.4669 -84.9681 105° East 85 98 3,600  Level Indianapolis Center
Wed 11:09:24 PM 39.4681 -84.9367 87° East 85 98 3,600 -49 Level Indianapolis Center
Wed 11:10:25 PM 39.4644 -84.9064 99° East 85 98 3,500  Descending Indianapolis Center
Wed 11:11:27 PM 39.4608 -84.8728 98° East 86 99 3,600  Climbing Indianapolis Center
Wed 11:12:28 PM 39.4542 -84.8444 107° East 83 96 3,500 -98 Descending Indianapolis Center
Wed 11:13:29 PM 39.4489 -84.8139 103° East 89 102 3,400 -98 Descending Indianapolis Center

Login

Don't have an account? Register now (free) for customized features, flight alerts, and more!